createdAt,value
2022-11-20T00:00:57.627Z,23.63
2022-11-20T00:03:25.761Z,25.80
2022-11-20T00:05:53.701Z,25.33
2022-11-20T00:08:22.035Z,24.00
2022-11-20T00:10:49.958Z,25.30
2022-11-20T00:13:19.292Z,24.67
2022-11-20T00:15:47.235Z,25.00
2022-11-20T00:18:15.195Z,24.80
2022-11-20T00:20:43.156Z,24.10
2022-11-20T00:23:11.153Z,27.77
2022-11-20T00:25:39.090Z,26.10
2022-11-20T00:28:06.993Z,24.70
2022-11-20T00:30:36.350Z,24.80
2022-11-20T00:33:04.374Z,25.20
2022-11-20T00:35:32.353Z,26.53
2022-11-20T00:38:00.272Z,26.20
2022-11-20T00:40:28.180Z,24.70
2022-11-20T00:42:56.122Z,24.20
2022-11-20T00:45:24.096Z,26.20
2022-11-20T00:47:53.398Z,23.57
2022-11-20T00:50:21.293Z,25.90
2022-11-20T00:52:49.205Z,25.60
2022-11-20T00:55:17.213Z,23.40
2022-11-20T00:57:45.234Z,24.90
2022-11-20T01:00:13.800Z,24.23
2022-11-20T01:02:41.779Z,25.77
2022-11-20T01:05:11.175Z,24.40
2022-11-20T01:07:39.166Z,25.63
2022-11-20T01:10:08.276Z,24.20
2022-11-20T01:12:36.178Z,24.93
2022-11-20T01:15:04.373Z,25.97
2022-11-20T01:17:33.426Z,26.57
2022-11-20T01:20:01.512Z,24.43
2022-11-20T01:22:30.833Z,25.40
2022-11-20T01:24:58.733Z,24.90
2022-11-20T01:27:26.777Z,23.73
2022-11-20T01:29:59.777Z,26.03
2022-11-20T01:32:29.000Z,24.90
2022-11-20T01:34:56.912Z,25.47
2022-11-20T01:37:24.835Z,26.30
2022-11-20T01:39:54.141Z,24.57
2022-11-20T01:42:39.796Z,25.83
2022-11-20T01:45:40.887Z,24.47
2022-11-20T01:48:09.079Z,26.10
2022-11-20T01:50:37.397Z,27.20
2022-11-20T01:53:09.405Z,27.77
2022-11-20T01:55:42.125Z,25.90
2022-11-20T01:58:10.921Z,26.53
2022-11-20T02:00:38.865Z,27.50
2022-11-20T02:03:09.783Z,27.10
2022-11-20T02:05:42.189Z,27.20
2022-11-20T02:08:10.618Z,27.57
2022-11-20T02:10:40.024Z,25.50
2022-11-20T02:13:25.702Z,25.83
2022-11-20T02:15:54.085Z,26.57
2022-11-20T02:18:22.950Z,25.50
2022-11-20T02:20:55.318Z,27.63
2022-11-20T02:23:30.085Z,28.37
2022-11-20T02:26:00.492Z,28.20
2022-11-20T02:28:29.360Z,25.80
2022-11-20T02:30:57.343Z,26.43
2022-11-20T02:33:25.432Z,26.80
2022-11-20T02:35:53.476Z,27.90
2022-11-20T02:38:21.974Z,27.90
2022-11-20T02:40:55.129Z,25.37
2022-11-20T02:43:25.151Z,27.70
2022-11-20T02:45:53.417Z,27.13
2022-11-20T02:48:22.385Z,28.07
2022-11-20T02:50:51.578Z,25.37
2022-11-20T02:53:19.514Z,28.03
2022-11-20T02:55:47.506Z,27.60
2022-11-20T02:58:15.434Z,28.40
2022-11-20T03:00:44.733Z,26.30
2022-11-20T03:03:14.658Z,27.87
2022-11-20T03:05:43.961Z,27.87
2022-11-20T03:08:14.150Z,27.87
2022-11-20T03:10:44.426Z,28.00
2022-11-20T03:13:12.429Z,29.83
2022-11-20T03:15:40.362Z,27.83
2022-11-20T03:18:14.500Z,29.47
2022-11-20T03:20:42.513Z,30.67
2022-11-20T03:23:10.464Z,33.30
2022-11-20T03:25:38.404Z,30.00
2022-11-20T03:28:06.524Z,32.83
2022-11-20T03:30:34.773Z,30.07
2022-11-20T03:33:02.728Z,29.90
2022-11-20T03:35:32.065Z,29.37
2022-11-20T03:38:00.137Z,29.00
2022-11-20T03:40:28.128Z,28.43
2022-11-20T03:42:56.068Z,31.70
2022-11-20T03:45:24.066Z,28.73
2022-11-20T03:47:52.564Z,29.03
2022-11-20T03:50:20.497Z,26.47
2022-11-20T03:52:49.821Z,28.20
2022-11-20T03:55:17.897Z,30.80
2022-11-20T03:57:46.095Z,30.33
2022-11-20T04:00:16.441Z,32.23
2022-11-20T04:02:44.386Z,31.07
2022-11-20T04:05:12.521Z,30.10
2022-11-20T04:07:40.494Z,29.63
2022-11-20T04:10:10.530Z,30.83
2022-11-20T04:12:38.499Z,29.63
2022-11-20T04:15:06.991Z,30.13
2022-11-20T04:17:34.948Z,28.87
2022-11-20T04:20:03.204Z,28.93
2022-11-20T04:22:31.514Z,29.63
2022-11-20T04:24:59.449Z,32.30
2022-11-20T04:27:28.716Z,32.77
2022-11-20T04:29:56.640Z,31.20
2022-11-20T04:32:24.568Z,28.63
2022-11-20T04:34:52.708Z,32.73
2022-11-20T04:37:20.642Z,28.70
2022-11-20T04:39:48.609Z,27.80
2022-11-20T04:42:31.344Z,27.23
2022-11-20T04:45:00.676Z,29.73
2022-11-20T04:47:28.656Z,30.70
2022-11-20T04:49:56.623Z,29.30
2022-11-20T04:52:24.601Z,27.77
2022-11-20T04:54:53.786Z,30.83
2022-11-20T04:57:21.966Z,30.37
2022-11-20T04:59:49.868Z,30.30
2022-11-20T05:02:19.385Z,28.87
2022-11-20T05:04:47.339Z,29.43
2022-11-20T05:07:15.359Z,27.47
2022-11-20T05:09:43.680Z,30.17
2022-11-20T05:12:11.699Z,29.63
2022-11-20T05:14:39.981Z,30.43
2022-11-20T05:17:08.007Z,30.00
2022-11-20T05:19:37.337Z,28.13
2022-11-20T05:22:06.771Z,29.80
2022-11-20T05:24:34.716Z,30.40
2022-11-20T05:27:02.705Z,29.57
2022-11-20T05:29:30.824Z,30.33
2022-11-20T05:31:58.769Z,27.53
2022-11-20T05:34:26.662Z,30.30
2022-11-20T05:36:55.958Z,32.23
2022-11-20T05:39:24.164Z,31.70
2022-11-20T05:42:12.534Z,31.00
2022-11-20T05:44:40.476Z,29.70
2022-11-20T05:47:08.821Z,28.97
2022-11-20T05:49:36.744Z,30.20
2022-11-20T05:52:06.224Z,28.30
2022-11-20T05:54:34.466Z,30.60
2022-11-20T05:57:02.381Z,29.93
2022-11-20T05:59:32.350Z,29.73
2022-11-20T06:02:00.321Z,31.57
2022-11-20T06:04:28.263Z,31.70
2022-11-20T06:06:56.334Z,31.70
2022-11-20T06:09:25.652Z,30.40
2022-11-20T06:11:53.625Z,31.30
2022-11-20T06:14:21.545Z,28.73
2022-11-20T06:16:49.493Z,29.77
2022-11-20T06:19:17.716Z,33.77
2022-11-20T06:21:45.732Z,28.20
2022-11-20T06:24:14.117Z,30.97
2022-11-20T06:26:43.533Z,32.33
2022-11-20T06:29:11.820Z,31.57
2022-11-20T06:31:40.022Z,32.90
2022-11-20T06:34:08.317Z,32.90
2022-11-20T06:36:36.290Z,33.00
2022-11-20T06:39:05.062Z,32.60
2022-11-20T06:41:33.437Z,31.77
2022-11-20T06:44:02.873Z,34.27
2022-11-20T06:46:33.434Z,30.67
2022-11-20T06:49:01.365Z,32.73
2022-11-20T06:51:29.296Z,32.90
2022-11-20T06:53:57.239Z,29.97
2022-11-20T06:56:25.164Z,35.63
2022-11-20T06:58:53.180Z,34.37
2022-11-20T07:01:22.566Z,31.23
2022-11-20T07:03:54.354Z,33.33
2022-11-20T07:06:22.635Z,30.63
2022-11-20T07:08:52.483Z,34.50
2022-11-20T07:11:20.394Z,33.20
2022-11-20T07:13:48.295Z,33.40
2022-11-20T07:16:16.245Z,31.93
2022-11-20T07:18:50.260Z,35.43
2022-11-20T07:21:18.909Z,33.10
2022-11-20T07:23:46.850Z,34.40
2022-11-20T07:26:14.953Z,36.97
2022-11-20T07:28:45.711Z,31.33
2022-11-20T07:31:18.704Z,32.60
2022-11-20T07:33:48.744Z,33.30
2022-11-20T07:36:18.242Z,35.87
2022-11-20T07:38:46.185Z,33.80
2022-11-20T07:41:14.158Z,36.23
2022-11-20T07:43:42.541Z,29.90
2022-11-20T07:46:10.556Z,32.40
2022-11-20T07:48:38.478Z,35.23
2022-11-20T07:51:08.158Z,35.33
2022-11-20T07:53:36.064Z,33.03
2022-11-20T07:56:04.734Z,34.20
2022-11-20T07:58:34.011Z,34.90
2022-11-20T08:01:05.612Z,41.10
2022-11-20T08:03:33.623Z,31.73
2022-11-20T08:06:02.497Z,32.60
2022-11-20T08:08:33.851Z,32.73
2022-11-20T08:11:16.424Z,33.30
2022-11-20T08:14:02.099Z,31.30
2022-11-20T08:16:30.722Z,32.27
2022-11-20T08:18:58.652Z,33.20
2022-11-20T08:21:26.577Z,32.73
2022-11-20T08:23:55.978Z,32.77
2022-11-20T08:26:24.308Z,32.10
2022-11-20T08:28:56.387Z,30.77
2022-11-20T08:31:25.078Z,35.50
2022-11-20T08:33:53.553Z,34.20
2022-11-20T08:36:22.963Z,36.60
2022-11-20T08:38:51.602Z,35.80
2022-11-20T08:41:27.819Z,32.03
2022-11-20T08:43:58.092Z,32.30
2022-11-20T08:46:27.601Z,34.90
2022-11-20T08:48:55.823Z,32.93
2022-11-20T08:51:23.835Z,33.40
2022-11-20T08:53:51.794Z,29.33
2022-11-20T08:56:21.055Z,32.23
2022-11-20T08:59:17.882Z,32.00
2022-11-20T09:01:39.948Z,32.13
2022-11-20T09:04:08.050Z,29.87
2022-11-20T09:06:36.174Z,28.30
2022-11-20T09:09:06.865Z,30.63
2022-11-20T09:11:37.026Z,117.53
2022-11-20T09:14:05.483Z,88.47
2022-11-20T09:16:33.620Z,30.33
2022-11-20T09:19:28.600Z,31.00
2022-11-20T09:21:49.649Z,46.10
2022-11-20T09:24:17.584Z,32.97
2022-11-20T09:26:46.905Z,42.47
2022-11-20T09:29:15.069Z,33.30
2022-11-20T09:31:42.978Z,33.97
2022-11-20T09:34:10.885Z,31.77
2022-11-20T09:36:38.952Z,185.93
2022-11-20T09:39:06.962Z,34.10
2022-11-20T09:41:53.442Z,44.93
2022-11-20T09:44:37.573Z,36.80
2022-11-20T09:47:14.196Z,38.43
2022-11-20T09:50:01.486Z,34.67
2022-11-20T09:52:39.443Z,30.93
2022-11-20T09:55:10.875Z,30.40
2022-11-20T09:57:43.461Z,31.57
2022-11-20T10:00:14.671Z,30.30
2022-11-20T10:02:48.730Z,27.20
2022-11-20T10:05:21.366Z,29.30
2022-11-20T10:07:56.859Z,28.93
2022-11-20T10:10:38.474Z,29.50
2022-11-20T10:13:22.359Z,30.57
2022-11-20T10:16:03.029Z,27.80
2022-11-20T10:18:44.628Z,29.77
2022-11-20T10:21:25.327Z,30.73
2022-11-20T10:24:10.533Z,30.90
2022-11-20T10:26:45.479Z,31.13
2022-11-20T10:29:17.325Z,32.63
2022-11-20T10:31:47.990Z,32.70
2022-11-20T10:34:23.187Z,31.07
2022-11-20T10:36:57.069Z,31.13
2022-11-20T10:39:33.201Z,31.17
2022-11-20T10:42:02.649Z,29.53
2022-11-20T10:44:56.260Z,27.00
2022-11-20T10:47:24.571Z,30.10
2022-11-20T10:49:56.031Z,29.17
2022-11-20T10:52:31.213Z,31.43
2022-11-20T10:55:08.957Z,32.33
2022-11-20T10:57:56.976Z,30.37
2022-11-20T11:00:26.479Z,32.10
2022-11-20T11:02:55.922Z,34.87
2022-11-20T11:05:34.761Z,46.90
2022-11-20T11:08:02.911Z,38.43
2022-11-20T11:10:38.398Z,35.90
2022-11-20T11:13:07.085Z,34.57
2022-11-20T11:15:41.806Z,49.00
2022-11-20T11:18:12.245Z,42.40
2022-11-20T11:20:40.381Z,33.00
2022-11-20T11:23:34.355Z,29.63
2022-11-20T11:26:04.002Z,29.13
2022-11-20T11:28:32.714Z,28.10
2022-11-20T11:31:02.183Z,28.70
2022-11-20T11:33:31.955Z,29.43
2022-11-20T11:36:02.432Z,30.20
2022-11-20T11:38:36.304Z,31.27
2022-11-20T11:41:05.672Z,31.57
2022-11-20T11:43:53.538Z,28.97
2022-11-20T11:46:32.900Z,33.13
2022-11-20T11:49:02.933Z,31.63
2022-11-20T11:51:38.319Z,31.60
2022-11-20T11:54:17.561Z,29.33
2022-11-20T11:56:46.961Z,28.20
2022-11-20T11:59:25.211Z,28.60
2022-11-20T12:01:59.675Z,28.53
2022-11-20T12:04:42.532Z,28.70
2022-11-20T12:07:44.112Z,30.73
2022-11-20T12:10:04.594Z,30.40
2022-11-20T12:12:38.621Z,30.33
2022-11-20T12:15:11.754Z,27.20
2022-11-20T12:17:41.217Z,30.87
2022-11-20T12:20:15.126Z,29.10
2022-11-20T12:22:52.435Z,31.20
2022-11-20T12:25:24.370Z,29.23
2022-11-20T12:28:15.738Z,30.57
2022-11-20T12:30:56.313Z,29.60
2022-11-20T12:33:50.890Z,28.70
2022-11-20T12:36:27.860Z,29.33
2022-11-20T12:39:35.668Z,29.30
2022-11-20T12:42:35.335Z,30.50
2022-11-20T12:45:25.978Z,34.60
2022-11-20T12:48:26.225Z,31.53
2022-11-20T12:51:16.928Z,30.73
2022-11-20T12:53:57.089Z,28.10
2022-11-20T12:56:39.168Z,31.83
2022-11-20T12:59:26.074Z,31.27
2022-11-20T13:01:58.870Z,29.40
2022-11-20T13:04:44.403Z,29.27
2022-11-20T13:07:16.293Z,28.97
2022-11-20T13:09:47.574Z,32.13
2022-11-20T13:12:21.192Z,31.27
2022-11-20T13:14:56.138Z,32.33
2022-11-20T13:17:35.307Z,34.30
2022-11-20T13:20:07.188Z,33.80
2022-11-20T13:22:47.515Z,32.23
2022-11-20T13:25:25.750Z,31.07
2022-11-20T13:27:54.937Z,30.53
2022-11-20T13:30:24.512Z,29.53
2022-11-20T13:32:55.361Z,31.70
2022-11-20T13:35:32.070Z,30.90
2022-11-20T13:38:09.605Z,29.20
2022-11-20T13:40:39.839Z,30.53
2022-11-20T13:43:20.085Z,33.23
2022-11-20T13:45:57.938Z,34.73
2022-11-20T13:48:31.006Z,32.27
2022-11-20T13:51:20.356Z,35.70
2022-11-20T13:54:13.342Z,36.17
2022-11-20T13:56:52.096Z,37.90
2022-11-20T13:59:36.521Z,38.10
2022-11-20T14:02:04.631Z,39.97
2022-11-20T14:04:37.903Z,29.83
2022-11-20T14:07:07.950Z,36.17
2022-11-20T14:09:37.301Z,41.37
2022-11-20T14:12:15.324Z,42.93
2022-11-20T14:14:51.030Z,50.27
2022-11-20T14:17:22.151Z,44.93
2022-11-20T14:19:52.141Z,45.00
2022-11-20T14:22:22.377Z,46.90
2022-11-20T14:25:03.894Z,42.60
2022-11-20T14:27:36.157Z,37.30
2022-11-20T14:30:04.646Z,37.27
2022-11-20T14:32:33.712Z,37.30
2022-11-20T14:35:08.945Z,31.13
2022-11-20T14:37:40.424Z,32.13
2022-11-20T14:40:29.225Z,32.77
2022-11-20T14:42:57.663Z,29.80
2022-11-20T14:45:27.184Z,31.17
2022-11-20T14:47:58.448Z,29.87
2022-11-20T14:50:29.018Z,29.60
2022-11-20T14:52:59.172Z,43.70
2022-11-20T14:55:32.894Z,35.90
2022-11-20T14:58:03.022Z,40.33
2022-11-20T15:00:32.413Z,39.90
2022-11-20T15:03:00.376Z,28.93
2022-11-20T15:05:46.581Z,28.07
2022-11-20T15:08:15.602Z,29.90
2022-11-20T15:10:50.267Z,32.20
2022-11-20T15:13:22.497Z,34.37
2022-11-20T15:15:53.059Z,30.60
2022-11-20T15:18:23.381Z,32.10
2022-11-20T15:20:51.933Z,30.80
2022-11-20T15:23:21.520Z,32.93
2022-11-20T15:25:51.243Z,36.03
2022-11-20T15:28:22.851Z,38.50
2022-11-20T15:30:51.670Z,40.20
2022-11-20T15:33:20.092Z,35.70
2022-11-20T15:35:48.040Z,34.03
2022-11-20T15:38:16.079Z,37.93
2022-11-20T15:40:44.014Z,36.03
2022-11-20T15:43:14.059Z,34.10
2022-11-20T15:45:46.188Z,27.77
2022-11-20T15:48:17.616Z,27.33
2022-11-20T15:50:52.866Z,17.70
2022-11-20T15:53:20.886Z,15.77
2022-11-20T15:55:48.934Z,14.97
2022-11-20T15:58:18.642Z,11.73
2022-11-20T16:00:46.785Z,9.50
2022-11-20T16:03:15.130Z,9.90
2022-11-20T16:05:43.214Z,8.23
2022-11-20T16:08:11.927Z,8.87
2022-11-20T16:10:40.292Z,8.70
2022-11-20T16:13:32.310Z,7.30
2022-11-20T16:16:05.886Z,7.83
2022-11-20T16:18:34.508Z,6.60
2022-11-20T16:21:03.320Z,8.57
2022-11-20T16:23:31.775Z,7.47
2022-11-20T16:25:59.733Z,13.37
2022-11-20T16:28:27.720Z,9.03
2022-11-20T16:30:55.826Z,15.77
2022-11-20T16:33:25.161Z,10.40
2022-11-20T16:35:53.151Z,9.80
2022-11-20T16:38:21.186Z,9.90
2022-11-20T16:40:49.246Z,9.10
2022-11-20T16:43:17.151Z,8.33
2022-11-20T16:45:46.224Z,9.50
2022-11-20T16:48:15.456Z,10.73
2022-11-20T16:50:52.849Z,9.33
2022-11-20T16:53:22.978Z,9.40
2022-11-20T16:55:50.886Z,8.90
2022-11-20T16:58:19.077Z,6.37
2022-11-20T17:00:51.442Z,6.43
2022-11-20T17:03:21.011Z,6.57
2022-11-20T17:05:49.098Z,6.03
2022-11-20T17:08:18.409Z,8.07
2022-11-20T17:10:46.326Z,8.00
2022-11-20T17:13:14.265Z,8.07
2022-11-20T17:15:42.251Z,7.80
2022-11-20T17:18:10.228Z,6.77
2022-11-20T17:20:38.125Z,5.90
2022-11-20T17:23:06.037Z,6.10
2022-11-20T17:25:35.913Z,6.20
2022-11-20T17:28:03.865Z,6.53
2022-11-20T17:30:31.832Z,8.03
2022-11-20T17:32:59.781Z,6.00
2022-11-20T17:35:27.731Z,6.23
2022-11-20T17:37:55.681Z,7.50
2022-11-20T17:40:27.404Z,7.17
2022-11-20T17:42:57.134Z,6.23
2022-11-20T17:45:25.052Z,7.90
2022-11-20T17:47:53.445Z,5.83
2022-11-20T17:50:21.389Z,5.60
2022-11-20T17:52:49.333Z,6.20
2022-11-20T17:55:17.518Z,6.23
2022-11-20T17:57:53.722Z,5.20
2022-11-20T18:00:23.293Z,5.40
2022-11-20T18:02:51.538Z,5.73
2022-11-20T18:05:19.760Z,6.27
2022-11-20T18:07:48.738Z,6.73
2022-11-20T18:10:17.641Z,6.87
2022-11-20T18:12:46.776Z,7.30
2022-11-20T18:15:17.850Z,10.10
2022-11-20T18:17:47.914Z,9.33
2022-11-20T18:20:36.538Z,9.23
2022-11-20T18:23:05.097Z,7.93
2022-11-20T18:25:33.598Z,8.20
2022-11-20T18:28:01.636Z,11.40
2022-11-20T18:30:29.912Z,9.10
2022-11-20T18:33:00.156Z,8.87
2022-11-20T18:35:29.465Z,10.13
2022-11-20T18:37:57.723Z,8.50
2022-11-20T18:40:25.853Z,8.13
2022-11-20T18:43:11.928Z,7.67
2022-11-20T18:45:40.227Z,8.00
2022-11-20T18:48:09.752Z,7.90
2022-11-20T18:50:37.789Z,7.60
2022-11-20T18:53:06.171Z,9.40
2022-11-20T18:55:34.450Z,22.30
2022-11-20T18:58:02.649Z,21.03
2022-11-20T19:00:30.945Z,19.13
2022-11-20T19:02:59.258Z,11.50
2022-11-20T19:05:29.387Z,16.23
2022-11-20T19:07:57.772Z,16.33
2022-11-20T19:10:27.449Z,10.10
2022-11-20T19:12:55.958Z,10.10
2022-11-20T19:15:29.101Z,7.03
2022-11-20T19:17:58.756Z,5.20
2022-11-20T19:20:28.515Z,4.50
2022-11-20T19:22:57.291Z,4.43
2022-11-20T19:25:25.653Z,4.20
2022-11-20T19:27:53.789Z,4.30
2022-11-20T19:30:22.103Z,5.57
2022-11-20T19:32:50.521Z,3.57
2022-11-20T19:35:18.715Z,4.20
2022-11-20T19:37:48.081Z,3.53
2022-11-20T19:40:16.355Z,3.93
2022-11-20T19:42:44.661Z,3.33
2022-11-20T19:45:12.915Z,3.77
2022-11-20T19:50:29.314Z,3.30
2022-11-20T19:52:59.259Z,3.30
2022-11-20T19:55:27.700Z,2.80
2022-11-20T19:57:56.036Z,3.20
2022-11-20T20:00:29.534Z,2.80
2022-11-20T20:03:01.823Z,3.73
2022-11-20T20:05:30.219Z,4.23
2022-11-20T20:07:59.841Z,3.33
2022-11-20T20:10:29.296Z,3.80
2022-11-20T20:12:57.415Z,3.77
2022-11-20T20:15:25.755Z,4.63
2022-11-20T20:17:53.973Z,3.97
2022-11-20T20:20:22.069Z,5.87
2022-11-20T20:22:50.494Z,4.07
2022-11-20T20:25:20.199Z,3.80
2022-11-20T20:27:48.160Z,4.27
2022-11-20T20:30:16.446Z,4.40
2022-11-20T20:32:44.533Z,3.97
2022-11-20T20:35:12.523Z,3.77
2022-11-20T20:37:40.431Z,3.60
2022-11-20T20:40:14.892Z,4.70
2022-11-20T20:42:44.701Z,4.03
2022-11-20T20:45:12.721Z,6.23
2022-11-20T20:47:42.155Z,5.30
2022-11-20T20:50:12.284Z,6.77
2022-11-20T20:52:40.767Z,5.37
2022-11-20T20:55:10.110Z,3.67
2022-11-20T20:57:38.354Z,4.50
2022-11-20T21:00:09.127Z,4.33
2022-11-20T21:02:37.071Z,3.80
2022-11-20T21:05:05.540Z,4.07
2022-11-20T21:07:33.617Z,3.57
2022-11-20T21:10:01.570Z,4.13
2022-11-20T21:12:29.501Z,4.90
2022-11-20T21:14:57.478Z,4.90
2022-11-20T21:17:27.920Z,4.87
2022-11-20T21:19:55.822Z,4.30
2022-11-20T21:22:22.773Z,5.33
2022-11-20T21:24:50.669Z,4.70
2022-11-20T21:27:18.597Z,5.40
2022-11-20T21:29:46.570Z,4.70
2022-11-20T21:32:14.471Z,4.07
2022-11-20T21:34:43.794Z,3.47
2022-11-20T21:37:11.723Z,4.47
2022-11-20T21:39:50.510Z,3.37
2022-11-20T21:42:18.574Z,4.00
2022-11-20T21:44:47.519Z,4.10
2022-11-20T21:47:15.485Z,3.57
2022-11-20T21:49:44.780Z,3.83
2022-11-20T21:52:13.557Z,3.80
2022-11-20T21:54:41.493Z,3.90
2022-11-20T21:57:09.444Z,4.00
2022-11-20T21:59:37.461Z,3.30
2022-11-20T22:02:05.464Z,3.50
2022-11-20T22:04:33.456Z,3.87
2022-11-20T22:07:02.892Z,4.33
2022-11-20T22:09:30.861Z,4.93
2022-11-20T22:11:58.768Z,5.10
2022-11-20T22:14:26.870Z,4.67
2022-11-20T22:16:54.973Z,4.80
2022-11-20T22:19:24.629Z,4.40
2022-11-20T22:21:52.791Z,4.10
2022-11-20T22:24:23.985Z,4.70
2022-11-20T22:26:52.464Z,4.63
2022-11-20T22:29:21.993Z,4.33
2022-11-20T22:31:52.255Z,3.93
2022-11-20T22:34:20.912Z,3.87
2022-11-20T22:36:49.055Z,3.70
2022-11-20T22:39:17.560Z,4.00
2022-11-20T22:41:46.841Z,3.60
2022-11-20T22:44:16.511Z,4.60
2022-11-20T22:46:44.519Z,4.30
2022-11-20T22:49:12.642Z,4.60
2022-11-20T22:51:42.487Z,3.60
2022-11-20T22:54:12.419Z,4.70
2022-11-20T22:56:40.406Z,4.60
2022-11-20T22:59:09.916Z,4.30
2022-11-20T23:01:38.787Z,3.77
2022-11-20T23:04:08.589Z,4.43
2022-11-20T23:06:36.891Z,5.23
2022-11-20T23:09:05.648Z,4.53
2022-11-20T23:11:35.073Z,5.20
2022-11-20T23:14:04.945Z,4.80
2022-11-20T23:16:35.094Z,4.40
2022-11-20T23:19:05.199Z,3.93
2022-11-20T23:21:33.766Z,5.80
2022-11-20T23:24:02.426Z,4.83
2022-11-20T23:26:33.247Z,5.60
2022-11-20T23:29:01.561Z,5.00
2022-11-20T23:31:31.560Z,4.47
2022-11-20T23:34:01.143Z,5.40
2022-11-20T23:36:29.110Z,5.40
2022-11-20T23:38:57.066Z,5.57
2022-11-20T23:41:25.014Z,6.17
2022-11-20T23:43:53.696Z,6.17
2022-11-20T23:46:21.723Z,5.80
2022-11-20T23:48:49.727Z,6.20
2022-11-20T23:51:19.033Z,6.50
2022-11-20T23:53:46.947Z,7.13
2022-11-20T23:56:15.252Z,7.73
2022-11-20T23:58:43.954Z,9.10
